Time;durP1;ratioP1;P1;durP2;ratioP2;P2;SDS_P1;SDS_P2;PMS_P1;PMS_P2;Temp;Humidity;BMP_temperature;BMP_pressure;BME280_temperature;BME280_humidity;BME280_pressure;Samples;Min_cycle;Max_cycle;Signal;HPM_P1;HPM_P2
2023/12/17 00:01:14;;;;;;;74.50;27.27;;;;;;;8.26;100.00;103525.72;4997518;28;20037;-92
2023/12/17 00:03:40;;;;;;;75.97;28.92;;;;;;;8.27;100.00;103528.41;5005196;28;20610;-92
2023/12/17 00:06:06;;;;;;;74.18;28.15;;;;;;;8.27;100.00;103530.25;4981611;28;20029;-92
2023/12/17 00:08:31;;;;;;;75.32;29.38;;;;;;;8.26;100.00;103531.16;4999225;28;20034;-92
2023/12/17 00:10:57;;;;;;;71.50;30.50;;;;;;;8.27;100.00;103532.97;4985252;28;20041;-92
2023/12/17 00:13:24;;;;;;;72.70;28.17;;;;;;;8.28;100.00;103532.06;5017543;28;20498;-92
2023/12/17 00:15:50;;;;;;;81.57;29.55;;;;;;;8.28;100.00;103529.31;4996085;28;20036;-92
2023/12/17 00:18:15;;;;;;;83.03;30.83;;;;;;;8.31;100.00;103526.47;5001710;28;20116;-92
2023/12/17 00:20:41;;;;;;;73.88;30.25;;;;;;;8.28;100.00;103522.03;5005596;28;20452;-91
2023/12/17 00:23:06;;;;;;;88.78;32.20;;;;;;;8.33;100.00;103520.97;5017182;28;20025;-92
2023/12/17 00:25:34;;;;;;;85.55;31.33;;;;;;;8.31;100.00;103512.84;4986662;28;20116;-92
2023/12/17 00:28:01;;;;;;;89.03;32.10;;;;;;;8.33;100.00;103512.78;4992291;28;20390;-93
2023/12/17 00:30:27;;;;;;;86.55;32.45;;;;;;;8.33;100.00;103510.97;5033713;28;20479;-93
2023/12/17 00:32:54;;;;;;;87.70;31.25;;;;;;;8.34;100.00;103511.88;5027864;28;20100;-94
2023/12/17 00:35:20;;;;;;;85.97;32.08;;;;;;;8.35;100.00;103519.13;5015068;28;20510;-92
2023/12/17 00:37:46;;;;;;;90.07;33.15;;;;;;;8.35;100.00;103509.09;5000574;28;20178;-93
2023/12/17 00:40:11;;;;;;;90.25;33.05;;;;;;;8.35;100.00;103502.75;5036163;28;20165;-91
2023/12/17 00:42:36;;;;;;;91.43;31.42;;;;;;;8.34;100.00;103493.66;5033986;28;20472;-92
2023/12/17 00:45:03;;;;;;;81.85;31.65;;;;;;;8.35;100.00;103494.56;5010085;28;20044;-92
2023/12/17 00:47:29;;;;;;;84.57;33.72;;;;;;;8.37;100.00;103499.03;5003396;28;20122;-92
2023/12/17 00:49:55;;;;;;;93.65;33.72;;;;;;;8.39;100.00;103501.72;5015616;28;20096;-92
2023/12/17 00:52:21;;;;;;;88.82;32.75;;;;;;;8.38;100.00;103505.38;4982265;28;20034;-92
2023/12/17 00:54:47;;;;;;;97.32;33.60;;;;;;;8.40;100.00;103511.72;5023412;28;20028;-91
2023/12/17 00:57:13;;;;;;;94.47;34.30;;;;;;;8.44;100.00;103510.72;5028325;28;20029;-91
2023/12/17 00:59:38;;;;;;;91.25;32.88;;;;;;;8.42;100.00;103498.91;5032334;28;20099;-92
2023/12/17 01:02:04;;;;;;;94.65;32.42;;;;;;;8.41;100.00;103506.22;5016005;28;20030;-92
2023/12/17 01:04:30;;;;;;;92.80;31.80;;;;;;;8.43;100.00;103509.81;4997094;28;20029;-92
2023/12/17 01:06:57;;;;;;;93.35;33.17;;;;;;;8.43;100.00;103498.91;4999781;28;20077;-92
2023/12/17 01:09:24;;;;;;;86.10;31.77;;;;;;;8.45;100.00;103499.75;5038306;28;20037;-92
2023/12/17 01:11:49;;;;;;;90.80;32.80;;;;;;;8.44;100.00;103497.97;5016763;28;20498;-92
2023/12/17 01:14:14;;;;;;;93.10;33.63;;;;;;;8.48;100.00;103486.94;5016294;28;20029;-92
2023/12/17 01:16:41;;;;;;;95.13;32.83;;;;;;;8.46;100.00;103473.34;5017589;28;20046;-93
2023/12/17 01:19:07;;;;;;;90.05;33.15;;;;;;;8.48;100.00;103485.13;5000370;28;20040;-93
2023/12/17 01:21:32;;;;;;;91.28;31.45;;;;;;;8.48;100.00;103493.31;4990292;28;20029;-93
2023/12/17 01:23:59;;;;;;;96.20;32.67;;;;;;;8.51;100.00;103487.78;4999545;28;20052;-92
2023/12/17 01:26:26;;;;;;;90.90;33.30;;;;;;;8.51;100.00;103490.50;5005789;28;20506;-93
2023/12/17 01:28:55;;;;;;;95.10;33.83;;;;;;;8.54;100.00;103489.50;5032892;28;20041;-92
2023/12/17 01:31:21;;;;;;;96.70;33.92;;;;;;;8.56;100.00;103491.28;5001742;28;20558;-93
2023/12/17 01:33:46;;;;;;;87.20;32.80;;;;;;;8.56;100.00;103496.72;5002911;28;20053;-93
2023/12/17 01:36:13;;;;;;;87.60;33.10;;;;;;;8.58;100.00;103499.41;4997203;28;20034;-93
2023/12/17 01:38:38;;;;;;;83.15;31.08;;;;;;;8.58;100.00;103497.59;5014646;28;20113;-94
2023/12/17 01:41:04;;;;;;;79.78;30.52;;;;;;;8.61;100.00;103504.81;5015616;28;20128;-93
2023/12/17 01:43:29;;;;;;;79.55;30.13;;;;;;;8.63;100.00;103511.09;5015342;28;20044;-93
2023/12/17 01:45:55;;;;;;;78.75;31.20;;;;;;;8.64;100.00;103513.81;5002382;28;20534;-93
2023/12/17 01:48:22;;;;;;;83.53;31.25;;;;;;;8.65;100.00;103514.69;4986906;28;20543;-93
2023/12/17 01:50:49;;;;;;;76.00;31.48;;;;;;;8.65;100.00;103518.31;4988503;28;20124;-93
2023/12/17 01:53:16;;;;;;;74.53;30.15;;;;;;;8.67;100.00;103523.72;5009502;28;20083;-93
2023/12/17 01:55:42;;;;;;;85.65;33.13;;;;;;;8.67;100.00;103526.47;5045267;28;20025;-93
2023/12/17 01:58:09;;;;;;;77.97;30.73;;;;;;;8.68;100.00;103521.91;5003499;28;20040;-93
2023/12/17 02:00:36;;;;;;;73.80;29.90;;;;;;;8.68;100.00;103528.25;5018540;28;20429;-93
2023/12/17 02:03:03;;;;;;;74.00;30.02;;;;;;;8.69;100.00;103527.34;5016958;28;20094;-93
2023/12/17 02:05:34;;;;;;;63.65;28.45;;;;;;;8.70;100.00;103526.38;5020640;28;20085;-92
2023/12/17 02:08:03;;;;;;;66.57;27.58;;;;;;;8.69;100.00;103518.22;5038039;28;20042;-92
2023/12/17 02:10:30;;;;;;;68.72;27.58;;;;;;;8.70;100.00;103512.72;5027171;28;20064;-92
2023/12/17 02:12:59;;;;;;;63.92;27.67;;;;;;;8.67;100.00;103504.59;4999171;28;20127;-92
2023/12/17 02:15:25;;;;;;;69.47;28.05;;;;;;;8.68;100.00;103506.41;5013174;28;20388;-92
2023/12/17 02:17:50;;;;;;;66.30;27.70;;;;;;;8.67;100.00;103509.19;5003596;28;20088;-92
2023/12/17 02:20:15;;;;;;;67.32;28.08;;;;;;;8.68;100.00;103505.53;4995055;28;20123;-92
2023/12/17 02:22:43;;;;;;;73.32;29.75;;;;;;;8.68;100.00;103491.88;5015749;28;20040;-92
2023/12/17 02:25:08;;;;;;;64.25;28.17;;;;;;;8.67;100.00;103490.06;5019207;28;20508;-92
2023/12/17 02:27:34;;;;;;;63.67;28.52;;;;;;;8.64;100.00;103491.94;5013723;28;20033;-93
2023/12/17 02:30:00;;;;;;;63.90;27.10;;;;;;;8.66;100.00;103491.91;5019592;28;20026;-92
2023/12/17 02:32:25;;;;;;;60.58;27.65;;;;;;;8.70;100.00;103499.06;5014449;28;20103;-92
2023/12/17 02:34:51;;;;;;;64.32;28.70;;;;;;;8.66;100.00;103494.63;4986917;28;20103;-92
2023/12/17 02:37:18;;;;;;;62.55;26.83;;;;;;;8.68;100.00;103490.03;5003087;28;20549;-92
2023/12/17 02:39:43;;;;;;;69.75;29.55;;;;;;;8.68;100.00;103502.78;5035306;28;20025;-92
2023/12/17 02:42:09;;;;;;;67.45;28.17;;;;;;;8.65;100.00;103493.72;4998539;28;20418;-91
2023/12/17 02:44:35;;;;;;;65.25;27.83;;;;;;;8.64;100.00;103491.03;5031200;28;20060;-91
2023/12/17 02:47:00;;;;;;;71.22;27.20;;;;;;;8.61;100.00;103488.41;4993014;28;20487;-91
2023/12/17 02:49:26;;;;;;;64.20;29.13;;;;;;;8.69;100.00;103499.09;5024471;28;20041;-91
2023/12/17 02:51:52;;;;;;;68.90;29.00;;;;;;;8.67;100.00;103496.41;5018831;28;20021;-93
2023/12/17 02:54:19;;;;;;;72.35;30.27;;;;;;;8.67;100.00;103492.78;5005739;28;20036;-92
2023/12/17 02:56:45;;;;;;;69.05;28.42;;;;;;;8.70;100.00;103500.91;5022003;28;20037;-92
2023/12/17 02:59:12;;;;;;;66.80;28.10;;;;;;;8.65;100.00;103499.19;5018635;28;20079;-92
2023/12/17 03:01:42;;;;;;;67.68;28.75;;;;;;;8.66;100.00;103486.44;5006113;28;20029;-91
2023/12/17 03:04:08;;;;;;;65.32;27.95;;;;;;;8.65;100.00;103482.78;5012750;28;20069;-91
2023/12/17 03:06:33;;;;;;;65.68;27.65;;;;;;;8.66;100.00;103489.19;5036036;28;20063;-92
2023/12/17 03:08:59;;;;;;;71.25;28.55;;;;;;;8.68;100.00;103495.47;4999654;28;20037;-91
2023/12/17 03:11:24;;;;;;;65.55;28.55;;;;;;;8.65;100.00;103485.53;5054685;28;20107;-91
2023/12/17 03:13:50;;;;;;;67.90;26.67;;;;;;;8.64;100.00;103483.75;5021778;28;20044;-92
2023/12/17 03:16:15;;;;;;;62.05;27.00;;;;;;;8.64;100.00;103485.56;5002076;28;20034;-92
2023/12/17 03:18:41;;;;;;;61.47;26.10;;;;;;;8.66;100.00;103483.72;5002228;28;20041;-91
2023/12/17 03:21:07;;;;;;;67.00;28.40;;;;;;;8.65;100.00;103485.53;5001848;28;20026;-91
2023/12/17 03:23:33;;;;;;;64.82;29.13;;;;;;;8.65;100.00;103482.78;5018530;28;20051;-92
2023/12/17 03:25:59;;;;;;;73.07;28.88;;;;;;;8.68;100.00;103478.22;5000873;28;20026;-92
2023/12/17 03:28:25;;;;;;;66.70;26.80;;;;;;;8.65;100.00;103471.88;5034028;28;20171;-91
2023/12/17 03:30:51;;;;;;;79.88;27.77;;;;;;;8.65;100.00;103476.44;5013005;28;20068;-91
2023/12/17 03:33:16;;;;;;;70.20;28.02;;;;;;;8.62;100.00;103471.06;5007059;28;20043;-90
2023/12/17 03:35:42;;;;;;;77.22;28.45;;;;;;;8.63;100.00;103471.03;5037656;28;20033;-91
2023/12/17 03:38:07;;;;;;;70.38;28.42;;;;;;;8.65;100.00;103474.59;5037407;28;20478;-91
2023/12/17 03:40:34;;;;;;;71.65;27.85;;;;;;;8.61;100.00;103467.47;5042889;28;20112;-91
2023/12/17 03:43:00;;;;;;;75.75;28.80;;;;;;;8.62;100.00;103476.53;5021528;28;20039;-91
2023/12/17 03:45:26;;;;;;;74.43;27.60;;;;;;;8.59;100.00;103471.16;5037669;28;20021;-91
2023/12/17 03:47:51;;;;;;;68.13;27.77;;;;;;;8.62;100.00;103469.25;5025520;28;20056;-91
2023/12/17 03:50:19;;;;;;;67.63;27.98;;;;;;;8.62;100.00;103476.53;5024709;28;20032;-91
2023/12/17 03:52:48;;;;;;;76.78;28.75;;;;;;;8.62;100.00;103458.34;5037776;28;20053;-92
2023/12/17 03:55:14;;;;;;;79.70;28.77;;;;;;;8.59;100.00;103460.22;5055347;28;20036;-91
2023/12/17 03:57:39;;;;;;;72.72;27.40;;;;;;;8.60;100.00;103467.50;5055049;28;20033;-92
2023/12/17 04:00:06;;;;;;;75.30;26.23;;;;;;;8.60;100.00;103459.31;5037267;28;20037;-91
2023/12/17 04:02:32;;;;;;;69.60;25.65;;;;;;;8.59;100.00;103458.41;5040227;28;20028;-92
2023/12/17 04:04:58;;;;;;;69.18;26.88;;;;;;;8.58;100.00;103456.63;5061455;28;20063;-91
2023/12/17 04:07:26;;;;;;;75.57;28.00;;;;;;;8.57;100.00;103451.19;5037057;28;20040;-91
2023/12/17 04:09:52;;;;;;;72.20;25.67;;;;;;;8.54;100.00;103443.97;5025200;28;20060;-91
2023/12/17 04:12:19;;;;;;;66.90;25.45;;;;;;;8.55;100.00;103445.78;5053836;28;20033;-91
2023/12/17 04:14:44;;;;;;;63.92;24.95;;;;;;;8.55;100.00;103445.78;5024712;28;20501;-92
2023/12/17 04:17:10;;;;;;;62.47;24.52;;;;;;;8.56;100.00;103442.13;5020552;28;20032;-91
2023/12/17 04:19:35;;;;;;;70.18;24.50;;;;;;;8.54;100.00;103441.25;5036872;28;20113;-92
2023/12/17 04:22:01;;;;;;;57.88;23.17;;;;;;;8.55;100.00;103443.03;5020049;28;20387;-91
2023/12/17 04:24:26;;;;;;;64.00;24.45;;;;;;;8.55;100.00;103437.59;5003960;28;20090;-91
2023/12/17 04:26:51;;;;;;;59.42;24.70;;;;;;;8.56;100.00;103442.13;5005135;28;20571;-91
2023/12/17 04:29:17;;;;;;;66.82;25.20;;;;;;;8.53;100.00;103436.75;5005167;28;20039;-91
2023/12/17 04:31:44;;;;;;;58.25;23.30;;;;;;;8.55;100.00;103437.59;5040700;28;20033;-91
2023/12/17 04:34:10;;;;;;;62.47;23.83;;;;;;;8.50;100.00;103439.56;5037108;28;20112;-91
2023/12/17 04:36:41;;;;;;;53.50;21.48;;;;;;;8.50;100.00;103434.09;5046456;28;20021;-91
2023/12/17 04:39:06;;;;;;;55.25;21.90;;;;;;;8.49;100.00;103434.13;5038893;28;20033;-91
2023/12/17 04:41:33;;;;;;;53.35;21.58;;;;;;;8.43;100.00;103427.91;5044811;28;20058;-91
2023/12/17 04:43:59;;;;;;;60.40;21.20;;;;;;;8.45;100.00;103434.22;5051062;28;20271;-91
2023/12/17 04:46:24;;;;;;;50.83;20.25;;;;;;;8.46;100.00;103429.66;5030252;28;20052;-92
2023/12/17 04:48:50;;;;;;;51.22;20.00;;;;;;;8.44;100.00;103431.53;5054112;28;20092;-92
2023/12/17 04:51:16;;;;;;;47.63;18.63;;;;;;;8.42;100.00;103437.00;5021610;28;20090;-88
2023/12/17 04:53:42;;;;;;;45.92;18.58;;;;;;;8.38;100.00;103431.66;5023823;28;20074;-87
2023/12/17 04:56:08;;;;;;;41.50;17.52;;;;;;;8.39;100.00;103433.47;5027853;28;20071;-88
2023/12/17 04:58:33;;;;;;;41.63;17.65;;;;;;;8.37;100.00;103433.50;5018345;28;20521;-87
2023/12/17 05:01:00;;;;;;;43.35;17.70;;;;;;;8.37;100.00;103425.31;5017557;28;20044;-87
2023/12/17 05:03:25;;;;;;;52.38;20.10;;;;;;;8.40;100.00;103427.97;5021505;28;20752;-88
2023/12/17 05:05:51;;;;;;;43.20;17.55;;;;;;;8.41;100.00;103428.84;5026149;28;20053;-88
2023/12/17 05:08:20;;;;;;;43.28;16.52;;;;;;;8.40;100.00;103424.34;5030149;28;20068;-88
2023/12/17 05:10:48;;;;;;;46.55;17.30;;;;;;;8.35;100.00;103420.88;4997879;28;20062;-87
2023/12/17 05:13:14;;;;;;;40.28;16.52;;;;;;;8.39;100.00;103428.00;5039660;28;20113;-89
2023/12/17 05:15:40;;;;;;;37.40;15.63;;;;;;;8.35;100.00;103418.13;5061028;28;20081;-88
2023/12/17 05:18:05;;;;;;;45.20;17.25;;;;;;;8.36;100.00;103419.91;5041378;28;20033;-88
2023/12/17 05:20:32;;;;;;;41.42;16.23;;;;;;;8.32;100.00;103418.22;5006233;28;20032;-88
2023/12/17 05:22:59;;;;;;;38.58;15.82;;;;;;;8.29;100.00;103414.59;5018863;28;20033;-88
2023/12/17 05:25:25;;;;;;;38.42;15.20;;;;;;;8.25;100.00;103414.75;5019825;28;20029;-88
2023/12/17 05:27:51;;;;;;;37.17;15.00;;;;;;;8.26;100.00;103416.53;5037767;28;20045;-87
2023/12/17 05:30:16;;;;;;;41.90;14.43;;;;;;;8.22;100.00;103415.72;5027138;28;20169;-88
2023/12/17 05:32:42;;;;;;;32.95;13.60;;;;;;;8.21;100.00;103422.13;5006395;28;20044;-88
2023/12/17 05:35:08;;;;;;;34.15;13.85;;;;;;;8.17;100.00;103414.97;5040479;28;20047;-87
2023/12/17 05:37:33;;;;;;;37.00;14.98;;;;;;;8.20;100.00;103423.06;5034982;28;20033;-87
2023/12/17 05:39:59;;;;;;;42.25;14.68;;;;;;;8.21;100.00;103411.19;5024756;28;20039;-87
2023/12/17 05:42:24;;;;;;;35.40;14.35;;;;;;;8.19;100.00;103413.09;5053960;28;20119;-88
2023/12/17 05:44:51;;;;;;;36.78;14.32;;;;;;;8.16;100.00;103398.63;5017406;28;20127;-87
2023/12/17 05:47:17;;;;;;;33.85;13.88;;;;;;;8.19;100.00;103406.75;5026228;28;20025;-88
2023/12/17 05:49:43;;;;;;;37.42;13.90;;;;;;;8.19;100.00;103398.56;5045762;28;20408;-88
2023/12/17 05:52:09;;;;;;;37.50;14.15;;;;;;;8.14;100.00;103395.06;5033491;28;20048;-88
2023/12/17 05:54:34;;;;;;;33.78;13.65;;;;;;;8.12;100.00;103395.09;5048883;28;20032;-88
2023/12/17 05:57:01;;;;;;;34.83;14.30;;;;;;;8.12;100.00;103397.84;5035820;28;20112;-88
2023/12/17 05:59:28;;;;;;;46.67;14.50;;;;;;;8.14;100.00;103395.06;5052180;28;20497;-87
2023/12/17 06:01:54;;;;;;;39.63;14.38;;;;;;;8.13;100.00;103396.88;5041691;28;20027;-86
2023/12/17 06:04:20;;;;;;;38.08;15.15;;;;;;;8.18;100.00;103388.56;5027313;28;20044;-88
2023/12/17 06:06:46;;;;;;;35.35;13.15;;;;;;;8.12;100.00;103392.38;5027611;28;20033;-88
2023/12/17 06:09:12;;;;;;;37.35;13.68;;;;;;;8.14;100.00;103401.41;5021750;28;20390;-88
2023/12/17 06:11:38;;;;;;;27.85;11.43;;;;;;;8.08;100.00;103396.09;5037862;28;20091;-87
2023/12/17 06:14:03;;;;;;;35.25;14.70;;;;;;;8.15;100.00;103402.28;5044706;28;20033;-88
2023/12/17 06:16:29;;;;;;;35.45;12.50;;;;;;;8.08;100.00;103401.56;5041954;28;20086;-87
2023/12/17 06:18:54;;;;;;;43.17;14.38;;;;;;;8.11;100.00;103404.22;5039561;28;20483;-87
2023/12/17 06:21:25;;;;;;;35.72;13.32;;;;;;;8.07;100.00;103400.69;5016564;28;20036;-87
2023/12/17 06:23:57;;;;;;;38.92;13.73;;;;;;;8.10;100.00;103397.88;5033651;28;20033;-87
2023/12/17 06:26:26;;;;;;;37.40;13.95;;;;;;;8.08;100.00;103398.84;5033627;28;20029;-88
2023/12/17 06:28:52;;;;;;;38.13;13.50;;;;;;;8.07;100.00;103400.69;5044636;28;20083;-90
2023/12/17 06:31:19;;;;;;;37.03;13.93;;;;;;;8.06;100.00;103407.06;5033660;28;20040;-89
2023/12/17 06:33:44;;;;;;;35.97;13.40;;;;;;;8.07;100.00;103407.97;5021520;28;20036;-87
2023/12/17 06:36:10;;;;;;;38.78;13.63;;;;;;;8.05;100.00;103415.28;5042805;28;20116;-88
2023/12/17 06:38:35;;;;;;;42.67;15.02;;;;;;;8.05;100.00;103407.09;5040011;28;20033;-87
2023/12/17 06:41:02;;;;;;;36.28;14.30;;;;;;;8.01;100.00;103411.75;5019571;28;20046;-88
2023/12/17 06:43:27;;;;;;;38.40;14.48;;;;;;;8.05;100.00;103412.56;4997406;28;20072;-88
2023/12/17 06:45:54;;;;;;;39.83;15.40;;;;;;;8.05;100.00;103412.56;4999541;28;20120;-89
2023/12/17 06:48:19;;;;;;;39.33;15.45;;;;;;;8.02;100.00;103413.56;4985152;28;20045;-88
2023/12/17 06:50:45;;;;;;;36.60;14.25;;;;;;;7.97;100.00;103417.34;4999972;28;20479;-92
2023/12/17 06:53:16;;;;;;;42.33;15.55;;;;;;;8.00;100.00;103415.44;5014860;28;20121;-90
2023/12/17 06:55:44;;;;;;;34.78;14.38;;;;;;;7.96;100.00;103423.75;4998484;28;20510;-90
2023/12/17 06:58:09;;;;;;;43.97;15.60;;;;;;;7.97;100.00;103411.88;5012654;28;20037;-89
2023/12/17 07:00:35;;;;;;;52.13;15.68;;;;;;;7.95;100.00;103400.13;5034514;28;20078;-89
2023/12/17 07:03:02;;;;;;;35.08;14.48;;;;;;;7.91;100.00;103413.84;4999384;28;20036;-90
2023/12/17 07:05:27;;;;;;;36.00;14.63;;;;;;;7.96;100.00;103407.38;5001464;28;20095;-90
2023/12/17 07:07:54;;;;;;;39.63;15.02;;;;;;;7.97;100.00;103409.16;5029790;28;20080;-90
2023/12/17 07:10:20;;;;;;;37.45;15.93;;;;;;;7.90;100.00;103405.69;5006273;28;20101;-90
2023/12/17 07:12:46;;;;;;;45.85;16.65;;;;;;;7.92;100.00;103398.38;5011757;28;20029;-89
2023/12/17 07:15:12;;;;;;;36.33;14.65;;;;;;;7.85;100.00;103400.34;5017415;28;20406;-89
2023/12/17 07:17:37;;;;;;;42.70;16.10;;;;;;;7.91;100.00;103405.66;5036486;28;20030;-89
2023/12/17 07:20:05;;;;;;;36.45;14.40;;;;;;;7.88;100.00;103402.13;5017887;28;20120;-89
2023/12/17 07:22:30;;;;;;;37.33;14.80;;;;;;;7.85;100.00;103400.34;5015186;28;20037;-90
2023/12/17 07:24:55;;;;;;;45.65;15.35;;;;;;;7.90;100.00;103419.31;5014838;28;20403;-87
2023/12/17 07:27:21;;;;;;;37.15;16.02;;;;;;;7.91;100.00;103421.13;5005184;28;20506;-88
2023/12/17 07:29:50;;;;;;;37.08;15.30;;;;;;;7.94;100.00;103417.44;4993750;28;20042;-91
2023/12/17 07:32:17;;;;;;;42.65;16.33;;;;;;;7.93;100.00;103419.25;5009089;28;20480;-90
2023/12/17 07:34:42;;;;;;;31.55;15.43;;;;;;;7.90;100.00;103430.25;4994515;28;20083;-90
2023/12/17 07:37:09;;;;;;;38.25;16.38;;;;;;;7.95;100.00;103432.84;5000954;28;20037;-91
2023/12/17 07:39:34;;;;;;;45.85;16.60;;;;;;;7.95;100.00;103435.59;4998207;28;20053;-88
2023/12/17 07:42:02;;;;;;;36.40;16.05;;;;;;;7.90;100.00;103425.69;5018425;28;20081;-87
2023/12/17 07:44:29;;;;;;;41.10;16.25;;;;;;;7.88;100.00;103434.84;4996023;28;20049;-88
2023/12/17 07:47:00;;;;;;;36.78;15.30;;;;;;;7.85;100.00;103443.09;5031711;28;20472;-90
2023/12/17 07:49:26;;;;;;;39.58;16.33;;;;;;;7.82;100.00;103440.44;5032724;28;20021;-88
2023/12/17 07:51:52;;;;;;;37.70;15.32;;;;;;;7.79;100.00;103429.63;5041921;28;20029;-87
2023/12/17 07:54:18;;;;;;;36.58;15.65;;;;;;;7.81;100.00;103434.13;5032737;28;20041;-86
2023/12/17 07:56:45;;;;;;;33.45;13.95;;;;;;;7.84;100.00;103441.34;5008910;28;20037;-92
2023/12/17 07:59:11;;;;;;;33.75;15.20;;;;;;;7.85;100.00;103432.19;5015755;28;20029;-91
2023/12/17 08:01:36;;;;;;;30.52;13.93;;;;;;;7.80;100.00;103432.31;5009232;28;20037;-91
2023/12/17 08:04:02;;;;;;;33.05;13.23;;;;;;;7.80;100.00;103435.03;4992288;28;20041;-88
2023/12/17 08:06:27;;;;;;;29.25;13.05;;;;;;;7.79;100.00;103436.00;5017765;28;20030;-91
2023/12/17 08:08:54;;;;;;;28.02;13.30;;;;;;;7.82;100.00;103437.72;5017373;28;20037;-90
2023/12/17 08:11:21;;;;;;;32.15;14.20;;;;;;;7.84;100.00;103439.50;5017848;28;20045;-91
2023/12/17 08:13:47;;;;;;;27.02;12.88;;;;;;;7.78;100.00;103439.63;5033717;28;20030;-91
2023/12/17 08:16:13;;;;;;;30.65;14.18;;;;;;;7.83;100.00;103439.53;5023136;28;20029;-88
2023/12/17 08:18:39;;;;;;;30.20;14.15;;;;;;;7.78;100.00;103438.75;5028664;28;20025;-90
2023/12/17 08:21:05;;;;;;;33.10;14.65;;;;;;;7.79;100.00;103443.25;5014919;28;20026;-90
2023/12/17 08:23:31;;;;;;;34.15;13.90;;;;;;;7.71;100.00;103440.75;5019833;28;20032;-90
2023/12/17 08:25:57;;;;;;;33.28;14.00;;;;;;;7.70;100.00;103442.56;5029930;28;20084;-89
2023/12/17 08:28:23;;;;;;;29.48;13.55;;;;;;;7.67;100.00;103449.91;5049170;28;20128;-89
2023/12/17 08:30:49;;;;;;;34.22;14.68;;;;;;;7.75;100.00;103442.44;5041675;28;20051;-90
2023/12/17 08:33:16;;;;;;;33.50;13.20;;;;;;;7.68;100.00;103454.44;5033569;28;20479;-88
2023/12/17 08:35:45;;;;;;;32.42;12.70;;;;;;;7.64;100.00;103455.44;5017167;28;20036;-92
2023/12/17 08:38:11;;;;;;;26.63;12.32;;;;;;;7.59;100.00;103447.41;5030074;28;20407;-93
2023/12/17 08:40:38;;;;;;;36.58;13.30;;;;;;;7.63;100.00;103454.56;5034165;28;20037;-91
2023/12/17 08:43:04;;;;;;;34.38;13.15;;;;;;;7.54;100.00;103457.50;5019628;28;20048;-92
2023/12/17 08:45:33;;;;;;;33.05;12.63;;;;;;;7.50;100.00;103458.53;5053218;28;20052;-91
2023/12/17 08:48:00;;;;;;;28.33;12.23;;;;;;;7.46;100.00;103457.72;5048115;28;20042;-90
2023/12/17 08:50:25;;;;;;;30.90;13.15;;;;;;;7.37;100.00;103449.75;5020470;28;20029;-92
2023/12/17 08:52:51;;;;;;;31.05;12.27;;;;;;;7.35;100.00;103455.22;5039135;28;20508;-92
2023/12/17 08:55:17;;;;;;;30.52;13.40;;;;;;;7.39;100.00;103446.97;5020538;28;20064;-91
2023/12/17 08:57:43;;;;;;;28.45;12.75;;;;;;;7.36;100.00;103453.38;5018385;28;20487;-92
2023/12/17 09:00:11;;;;;;;28.88;12.27;;;;;;;7.28;100.00;103455.41;5003492;28;20040;-91
2023/12/17 09:02:36;;;;;;;30.77;12.85;;;;;;;7.27;100.00;103451.78;5006829;28;20033;-93
2023/12/17 09:05:05;;;;;;;32.15;12.45;;;;;;;7.19;100.00;103451.06;5054078;28;20541;-91
2023/12/17 09:07:32;;;;;;;28.75;12.15;;;;;;;7.14;100.00;103453.00;5038799;28;20032;-92
2023/12/17 09:10:00;;;;;;;27.58;12.18;;;;;;;7.13;100.00;103454.84;5040522;28;20025;-93
2023/12/17 09:12:26;;;;;;;34.58;13.45;;;;;;;7.04;100.00;103446.88;5034678;28;20029;-96
2023/12/17 09:14:51;;;;;;;28.65;12.00;;;;;;;6.91;100.00;103453.53;5022948;28;20033;-91
2023/12/17 09:17:18;;;;;;;35.17;14.65;;;;;;;6.92;100.00;103448.03;5003444;28;20395;-94
2023/12/17 09:19:44;;;;;;;36.55;16.88;;;;;;;6.98;100.00;103449.72;5040284;28;20029;-92
2023/12/17 09:22:09;;;;;;;40.22;16.70;;;;;;;6.93;100.00;103455.25;5019847;28;20037;-92
2023/12/17 09:24:35;;;;;;;40.80;17.58;;;;;;;6.98;100.00;103453.34;5045232;28;20075;-96
2023/12/17 09:27:02;;;;;;;36.78;16.98;;;;;;;6.93;100.00;103448.94;5045643;28;20029;-92
2023/12/17 09:29:28;;;;;;;42.78;17.70;;;;;;;6.92;100.00;103458.00;5037384;28;20120;-93
2023/12/17 09:31:53;;;;;;;40.15;18.17;;;;;;;6.80;100.00;103446.47;5022110;28;20061;-92
2023/12/17 09:34:19;;;;;;;45.13;17.92;;;;;;;6.91;100.00;103451.69;5044698;28;20124;-90
2023/12/17 09:36:45;;;;;;;47.75;17.35;;;;;;;6.83;100.00;103450.94;5013488;28;20376;-89
2023/12/17 09:39:10;;;;;;;54.13;20.73;;;;;;;6.84;100.00;103444.59;5008040;28;20041;-90
2023/12/17 09:41:36;;;;;;;50.40;20.42;;;;;;;6.89;100.00;103458.09;5035385;28;20387;-90
2023/12/17 09:44:04;;;;;;;43.30;17.33;;;;;;;6.69;100.00;103447.63;5052149;28;20386;-90
2023/12/17 09:46:30;;;;;;;44.85;17.92;;;;;;;6.71;100.00;103448.50;5017296;28;20024;-90
2023/12/17 09:48:55;;;;;;;49.22;18.38;;;;;;;6.72;100.00;103459.38;5002481;28;20120;-89
2023/12/17 09:51:23;;;;;;;49.53;18.00;;;;;;;6.77;100.00;103449.28;5021034;28;20028;-92
2023/12/17 09:53:49;;;;;;;45.05;18.55;;;;;;;6.72;100.00;103443.03;5026713;28;20029;-91
2023/12/17 09:56:14;;;;;;;47.55;19.10;;;;;;;6.76;100.00;103441.13;5004584;28;20052;-91
2023/12/17 09:58:40;;;;;;;46.67;18.73;;;;;;;6.75;100.00;103437.50;5020981;28;20025;-92
2023/12/17 10:01:06;;;;;;;38.28;16.40;;;;;;;6.68;100.00;103440.41;5029190;28;20167;-93
2023/12/17 10:03:32;;;;;;;40.10;17.67;;;;;;;6.66;100.00;103447.66;5036413;28;20029;-92
2023/12/17 10:05:57;;;;;;;40.92;17.52;;;;;;;6.62;100.00;103447.75;5061568;28;20119;-94
2023/12/17 10:08:23;;;;;;;37.72;17.42;;;;;;;6.65;100.00;103449.50;5030850;28;20044;-93
2023/12/17 10:10:49;;;;;;;34.15;17.02;;;;;;;6.63;100.00;103448.66;5023062;28;20068;-92
2023/12/17 10:13:19;;;;;;;41.15;16.83;;;;;;;6.57;100.00;103455.09;5038887;28;20104;-92
2023/12/17 10:15:53;;;;;;;35.55;16.77;;;;;;;6.54;100.00;103451.56;5028191;28;20044;-91
2023/12/17 10:18:19;;;;;;;41.60;17.73;;;;;;;6.52;100.00;103446.13;5039269;28;20029;-91
2023/12/17 10:20:45;;;;;;;41.40;16.50;;;;;;;6.63;100.00;103456.81;5050853;28;20037;-89
2023/12/17 10:23:12;;;;;;;38.83;17.20;;;;;;;6.51;100.00;103449.81;5054119;28;20033;-89
2023/12/17 10:25:37;;;;;;;38.55;16.00;;;;;;;6.55;100.00;103456.06;5047816;28;20467;-89
2023/12/17 10:28:03;;;;;;;35.80;13.82;;;;;;;6.42;100.00;103450.88;5020246;28;20055;-88
2023/12/17 10:30:31;;;;;;;42.88;17.63;;;;;;;6.51;100.00;103459.78;5012598;28;20063;-89
2023/12/17 10:32:58;;;;;;;44.33;19.27;;;;;;;6.53;100.00;103458.81;5036835;28;20024;-86
2023/12/17 10:35:27;;;;;;;43.65;17.42;;;;;;;6.55;100.00;103450.63;5055074;28;20067;-91
2023/12/17 10:37:59;;;;;;;37.83;17.10;;;;;;;6.56;100.00;103453.31;5025247;28;20024;-91
2023/12/17 10:40:26;;;;;;;48.80;18.35;;;;;;;6.66;100.00;103436.78;5049203;28;20083;-89
2023/12/17 10:42:54;;;;;;;40.53;16.88;;;;;;;6.58;100.00;103439.69;5026435;28;20060;-89
2023/12/17 10:45:20;;;;;;;46.25;19.52;;;;;;;6.68;100.00;103437.69;5028528;28;20406;-88
2023/12/17 10:47:51;;;;;;;43.65;17.88;;;;;;;6.64;100.00;103434.13;5027681;28;20032;-91
2023/12/17 10:50:18;;;;;;;42.63;16.38;;;;;;;6.56;100.00;103430.63;5057502;28;20108;-89
2023/12/17 10:52:45;;;;;;;43.88;18.05;;;;;;;6.63;100.00;103432.31;5066268;28;20040;-89
2023/12/17 10:55:11;;;;;;;44.72;17.63;;;;;;;6.56;100.00;103420.66;5065997;28;20063;-89
2023/12/17 10:57:39;;;;;;;43.40;18.35;;;;;;;6.59;100.00;103427.84;5033675;28;20029;-90
2023/12/17 11:00:07;;;;;;;43.25;19.05;;;;;;;6.60;100.00;103425.09;5034320;28;20059;-89
2023/12/17 11:02:33;;;;;;;46.63;18.98;;;;;;;6.66;100.00;103415.94;5061051;28;20036;-89
2023/12/17 11:04:59;;;;;;;53.45;20.42;;;;;;;6.73;100.00;103419.41;5055484;28;20017;-90